sensor_id;sensor_type;location;lat;lon;timestamp;temperature;humidity
22623;DHT22;11478;51.094;7.030;2022-10-16T00:01:23;11.80;99.90
22623;DHT22;11478;51.094;7.030;2022-10-16T00:03:50;11.80;99.90
22623;DHT22;11478;51.094;7.030;2022-10-16T00:06:19;11.80;99.90
22623;DHT22;11478;51.094;7.030;2022-10-16T00:08:48;11.80;99.90
22623;DHT22;11478;51.094;7.030;2022-10-16T00:11:19;11.80;99.90
22623;DHT22;11478;51.094;7.030;2022-10-16T00:13:50;11.80;99.90
22623;DHT22;11478;51.094;7.030;2022-10-16T00:16:17;11.80;99.90
22623;DHT22;11478;51.094;7.030;2022-10-16T00:18:44;11.80;99.90
22623;DHT22;11478;51.094;7.030;2022-10-16T00:21:17;11.80;99.90
22623;DHT22;11478;51.094;7.030;2022-10-16T00:23:44;11.80;99.90
22623;DHT22;11478;51.094;7.030;2022-10-16T00:26:13;11.70;99.90
22623;DHT22;11478;51.094;7.030;2022-10-16T00:28:46;11.70;99.90
22623;DHT22;11478;51.094;7.030;2022-10-16T00:31:12;11.70;99.90
22623;DHT22;11478;51.094;7.030;2022-10-16T00:34:00;11.70;99.90
22623;DHT22;11478;51.094;7.030;2022-10-16T00:36:28;11.70;99.90
22623;DHT22;11478;51.094;7.030;2022-10-16T00:39:04;11.60;99.90
22623;DHT22;11478;51.094;7.030;2022-10-16T00:41:33;11.60;99.90
22623;DHT22;11478;51.094;7.030;2022-10-16T00:44:01;11.60;99.90
22623;DHT22;11478;51.094;7.030;2022-10-16T00:51:39;11.50;99.90
22623;DHT22;11478;51.094;7.030;2022-10-16T00:54:19;11.50;99.90
22623;DHT22;11478;51.094;7.030;2022-10-16T00:56:47;11.40;99.90
22623;DHT22;11478;51.094;7.030;2022-10-16T01:02:32;11.30;99.90
22623;DHT22;11478;51.094;7.030;2022-10-16T01:05:14;11.30;99.90
22623;DHT22;11478;51.094;7.030;2022-10-16T01:13:38;11.30;99.90
22623;DHT22;11478;51.094;7.030;2022-10-16T01:16:13;11.20;99.90
22623;DHT22;11478;51.094;7.030;2022-10-16T01:22:00;11.20;99.90
22623;DHT22;11478;51.094;7.030;2022-10-16T01:24:44;11.10;99.90
22623;DHT22;11478;51.094;7.030;2022-10-16T01:27:30;11.10;99.90
22623;DHT22;11478;51.094;7.030;2022-10-16T01:30:07;11.10;99.90
22623;DHT22;11478;51.094;7.030;2022-10-16T01:40:31;11.10;99.90
22623;DHT22;11478;51.094;7.030;2022-10-16T01:43:15;11.10;99.90
22623;DHT22;11478;51.094;7.030;2022-10-16T01:45:45;11.10;99.90
22623;DHT22;11478;51.094;7.030;2022-10-16T01:48:14;11.20;99.90
22623;DHT22;11478;51.094;7.030;2022-10-16T01:50:44;11.20;99.90
22623;DHT22;11478;51.094;7.030;2022-10-16T01:53:12;11.20;99.90
22623;DHT22;11478;51.094;7.030;2022-10-16T01:55:43;11.10;99.90
22623;DHT22;11478;51.094;7.030;2022-10-16T01:58:12;11.10;99.90
22623;DHT22;11478;51.094;7.030;2022-10-16T02:00:45;11.10;99.90
22623;DHT22;11478;51.094;7.030;2022-10-16T02:03:14;11.20;99.90
22623;DHT22;11478;51.094;7.030;2022-10-16T02:05:48;11.10;99.90
22623;DHT22;11478;51.094;7.030;2022-10-16T02:08:18;11.20;99.90
22623;DHT22;11478;51.094;7.030;2022-10-16T02:10:50;11.20;99.90
22623;DHT22;11478;51.094;7.030;2022-10-16T02:13:41;11.20;99.90
22623;DHT22;11478;51.094;7.030;2022-10-16T02:16:11;11.20;99.90
22623;DHT22;11478;51.094;7.030;2022-10-16T02:18:43;11.30;99.90
22623;DHT22;11478;51.094;7.030;2022-10-16T02:21:28;11.30;99.90
22623;DHT22;11478;51.094;7.030;2022-10-16T02:24:18;11.30;99.90
22623;DHT22;11478;51.094;7.030;2022-10-16T02:32:44;11.40;99.90
22623;DHT22;11478;51.094;7.030;2022-10-16T02:35:13;11.40;99.90
22623;DHT22;11478;51.094;7.030;2022-10-16T02:37:44;11.40;99.90
22623;DHT22;11478;51.094;7.030;2022-10-16T02:40:11;11.50;99.90
22623;DHT22;11478;51.094;7.030;2022-10-16T02:42:39;11.50;99.90
22623;DHT22;11478;51.094;7.030;2022-10-16T02:45:07;11.50;99.90
22623;DHT22;11478;51.094;7.030;2022-10-16T02:47:40;11.50;99.90
22623;DHT22;11478;51.094;7.030;2022-10-16T02:50:06;11.50;99.90
22623;DHT22;11478;51.094;7.030;2022-10-16T02:52:35;11.50;99.90
22623;DHT22;11478;51.094;7.030;2022-10-16T02:55:04;11.50;99.90
22623;DHT22;11478;51.094;7.030;2022-10-16T02:57:35;11.60;99.90
22623;DHT22;11478;51.094;7.030;2022-10-16T03:00:04;11.60;99.90
22623;DHT22;11478;51.094;7.030;2022-10-16T03:02:41;11.60;99.90
22623;DHT22;11478;51.094;7.030;2022-10-16T03:05:09;11.60;99.90
22623;DHT22;11478;51.094;7.030;2022-10-16T03:07:35;11.70;99.90
22623;DHT22;11478;51.094;7.030;2022-10-16T03:10:07;11.70;99.90
22623;DHT22;11478;51.094;7.030;2022-10-16T03:12:33;11.70;99.90
22623;DHT22;11478;51.094;7.030;2022-10-16T03:14:59;11.70;99.90
22623;DHT22;11478;51.094;7.030;2022-10-16T03:17:25;11.70;99.90
22623;DHT22;11478;51.094;7.030;2022-10-16T03:19:52;11.70;99.90
22623;DHT22;11478;51.094;7.030;2022-10-16T03:22:28;11.70;99.90
22623;DHT22;11478;51.094;7.030;2022-10-16T03:24:55;11.70;99.90
22623;DHT22;11478;51.094;7.030;2022-10-16T03:27:22;11.70;99.90
22623;DHT22;11478;51.094;7.030;2022-10-16T03:29:49;11.60;99.90
22623;DHT22;11478;51.094;7.030;2022-10-16T03:32:15;11.60;99.90
22623;DHT22;11478;51.094;7.030;2022-10-16T03:34:41;11.60;99.90
22623;DHT22;11478;51.094;7.030;2022-10-16T03:37:07;11.60;99.90
22623;DHT22;11478;51.094;7.030;2022-10-16T03:39:36;11.60;99.90
22623;DHT22;11478;51.094;7.030;2022-10-16T03:42:06;11.50;99.90
22623;DHT22;11478;51.094;7.030;2022-10-16T03:44:41;11.60;99.90
22623;DHT22;11478;51.094;7.030;2022-10-16T03:47:12;11.50;99.90
22623;DHT22;11478;51.094;7.030;2022-10-16T03:49:40;11.50;99.90
22623;DHT22;11478;51.094;7.030;2022-10-16T03:52:12;11.50;99.90
22623;DHT22;11478;51.094;7.030;2022-10-16T03:54:38;11.50;99.90
22623;DHT22;11478;51.094;7.030;2022-10-16T03:57:21;11.50;99.90
22623;DHT22;11478;51.094;7.030;2022-10-16T03:59:47;11.50;99.90
22623;DHT22;11478;51.094;7.030;2022-10-16T04:02:38;11.50;99.90
22623;DHT22;11478;51.094;7.030;2022-10-16T04:05:04;11.40;99.90
22623;DHT22;11478;51.094;7.030;2022-10-16T04:07:35;11.40;99.90
22623;DHT22;11478;51.094;7.030;2022-10-16T04:10:08;11.40;99.90
22623;DHT22;11478;51.094;7.030;2022-10-16T04:12:35;11.40;99.90
22623;DHT22;11478;51.094;7.030;2022-10-16T04:15:01;11.40;99.90
22623;DHT22;11478;51.094;7.030;2022-10-16T04:17:29;11.40;99.90
22623;DHT22;11478;51.094;7.030;2022-10-16T04:19:57;11.40;99.90
22623;DHT22;11478;51.094;7.030;2022-10-16T04:22:23;11.50;99.90
22623;DHT22;11478;51.094;7.030;2022-10-16T04:24:49;11.50;99.90
22623;DHT22;11478;51.094;7.030;2022-10-16T04:27:16;11.50;99.90
22623;DHT22;11478;51.094;7.030;2022-10-16T04:29:43;11.50;99.90
22623;DHT22;11478;51.094;7.030;2022-10-16T04:32:14;11.50;99.90
22623;DHT22;11478;51.094;7.030;2022-10-16T04:34:51;11.50;99.90
22623;DHT22;11478;51.094;7.030;2022-10-16T04:37:17;11.50;99.90
22623;DHT22;11478;51.094;7.030;2022-10-16T04:39:50;11.50;99.90
22623;DHT22;11478;51.094;7.030;2022-10-16T04:42:18;11.50;99.90
22623;DHT22;11478;51.094;7.030;2022-10-16T04:44:45;11.50;99.90
22623;DHT22;11478;51.094;7.030;2022-10-16T04:47:11;11.50;99.90
22623;DHT22;11478;51.094;7.030;2022-10-16T04:49:39;11.50;99.90
22623;DHT22;11478;51.094;7.030;2022-10-16T04:52:05;11.50;99.90
22623;DHT22;11478;51.094;7.030;2022-10-16T04:54:34;11.50;99.90
22623;DHT22;11478;51.094;7.030;2022-10-16T04:57:02;11.40;99.90
22623;DHT22;11478;51.094;7.030;2022-10-16T04:59:35;11.40;99.90
22623;DHT22;11478;51.094;7.030;2022-10-16T05:05:18;11.30;99.90
22623;DHT22;11478;51.094;7.030;2022-10-16T05:07:58;11.30;99.90
22623;DHT22;11478;51.094;7.030;2022-10-16T05:10:29;11.30;99.90
22623;DHT22;11478;51.094;7.030;2022-10-16T05:12:57;11.20;99.90
22623;DHT22;11478;51.094;7.030;2022-10-16T05:15:26;11.20;99.90
22623;DHT22;11478;51.094;7.030;2022-10-16T05:18:00;11.20;99.90
22623;DHT22;11478;51.094;7.030;2022-10-16T05:20:29;11.20;99.90
22623;DHT22;11478;51.094;7.030;2022-10-16T05:22:56;11.20;99.90
22623;DHT22;11478;51.094;7.030;2022-10-16T05:25:25;11.20;99.90
22623;DHT22;11478;51.094;7.030;2022-10-16T05:28:03;11.10;99.90
22623;DHT22;11478;51.094;7.030;2022-10-16T05:30:47;11.10;99.90
22623;DHT22;11478;51.094;7.030;2022-10-16T05:33:15;11.10;99.90
22623;DHT22;11478;51.094;7.030;2022-10-16T05:35:43;11.00;99.90
22623;DHT22;11478;51.094;7.030;2022-10-16T05:38:13;11.00;99.90
22623;DHT22;11478;51.094;7.030;2022-10-16T05:40:40;11.00;99.90
22623;DHT22;11478;51.094;7.030;2022-10-16T05:43:07;11.00;99.90
22623;DHT22;11478;51.094;7.030;2022-10-16T05:45:40;11.00;99.90
22623;DHT22;11478;51.094;7.030;2022-10-16T05:48:06;11.00;99.90
22623;DHT22;11478;51.094;7.030;2022-10-16T05:50:32;11.00;99.90
22623;DHT22;11478;51.094;7.030;2022-10-16T05:53:00;11.00;99.90
22623;DHT22;11478;51.094;7.030;2022-10-16T05:55:31;11.00;99.90
22623;DHT22;11478;51.094;7.030;2022-10-16T05:58:12;11.00;99.90
22623;DHT22;11478;51.094;7.030;2022-10-16T06:00:57;11.00;99.90
22623;DHT22;11478;51.094;7.030;2022-10-16T06:03:39;11.00;99.90
22623;DHT22;11478;51.094;7.030;2022-10-16T06:06:21;11.00;99.90
22623;DHT22;11478;51.094;7.030;2022-10-16T06:08:48;11.00;99.90
22623;DHT22;11478;51.094;7.030;2022-10-16T06:11:19;11.10;99.90
22623;DHT22;11478;51.094;7.030;2022-10-16T06:13:48;11.10;99.90
22623;DHT22;11478;51.094;7.030;2022-10-16T06:16:14;11.10;99.90
22623;DHT22;11478;51.094;7.030;2022-10-16T06:18:40;11.10;99.90
22623;DHT22;11478;51.094;7.030;2022-10-16T06:21:14;11.10;99.90
22623;DHT22;11478;51.094;7.030;2022-10-16T06:23:40;11.10;99.90
22623;DHT22;11478;51.094;7.030;2022-10-16T06:26:15;11.10;99.90
22623;DHT22;11478;51.094;7.030;2022-10-16T06:28:53;11.10;99.90
22623;DHT22;11478;51.094;7.030;2022-10-16T06:31:24;11.10;99.90
22623;DHT22;11478;51.094;7.030;2022-10-16T06:33:56;11.10;99.90
22623;DHT22;11478;51.094;7.030;2022-10-16T06:36:25;11.20;99.90
22623;DHT22;11478;51.094;7.030;2022-10-16T06:42:24;11.20;99.90
22623;DHT22;11478;51.094;7.030;2022-10-16T06:44:57;11.20;99.90
22623;DHT22;11478;51.094;7.030;2022-10-16T06:47:24;11.30;99.90
22623;DHT22;11478;51.094;7.030;2022-10-16T06:49:50;11.30;99.90
22623;DHT22;11478;51.094;7.030;2022-10-16T06:52:18;11.40;99.90
22623;DHT22;11478;51.094;7.030;2022-10-16T06:54:44;11.40;99.90
22623;DHT22;11478;51.094;7.030;2022-10-16T06:57:21;11.50;99.90
22623;DHT22;11478;51.094;7.030;2022-10-16T06:59:49;11.60;99.90
22623;DHT22;11478;51.094;7.030;2022-10-16T07:02:27;11.60;99.90
22623;DHT22;11478;51.094;7.030;2022-10-16T07:05:15;11.70;99.90
22623;DHT22;11478;51.094;7.030;2022-10-16T07:07:43;11.70;99.90
22623;DHT22;11478;51.094;7.030;2022-10-16T07:10:13;11.80;99.90
22623;DHT22;11478;51.094;7.030;2022-10-16T07:12:47;11.80;99.90
22623;DHT22;11478;51.094;7.030;2022-10-16T07:15:17;11.90;99.90
22623;DHT22;11478;51.094;7.030;2022-10-16T07:18:03;12.00;99.90
22623;DHT22;11478;51.094;7.030;2022-10-16T07:27:05;12.20;99.90
22623;DHT22;11478;51.094;7.030;2022-10-16T07:29:41;12.30;99.90
22623;DHT22;11478;51.094;7.030;2022-10-16T07:32:12;12.40;99.90
22623;DHT22;11478;51.094;7.030;2022-10-16T07:35:07;12.40;99.90
22623;DHT22;11478;51.094;7.030;2022-10-16T07:37:53;12.40;99.90
22623;DHT22;11478;51.094;7.030;2022-10-16T07:40:56;12.50;99.90
22623;DHT22;11478;51.094;7.030;2022-10-16T07:43:32;12.50;99.90
22623;DHT22;11478;51.094;7.030;2022-10-16T07:46:08;12.60;99.90
22623;DHT22;11478;51.094;7.030;2022-10-16T07:48:47;12.60;99.90
22623;DHT22;11478;51.094;7.030;2022-10-16T07:51:21;12.60;99.90
22623;DHT22;11478;51.094;7.030;2022-10-16T07:57:00;12.50;99.90
22623;DHT22;11478;51.094;7.030;2022-10-16T07:59:49;12.50;99.90
22623;DHT22;11478;51.094;7.030;2022-10-16T08:02:43;12.50;99.90
22623;DHT22;11478;51.094;7.030;2022-10-16T08:05:11;12.50;99.90
22623;DHT22;11478;51.094;7.030;2022-10-16T08:08:14;12.50;99.90
22623;DHT22;11478;51.094;7.030;2022-10-16T08:10:50;12.50;99.90
22623;DHT22;11478;51.094;7.030;2022-10-16T08:13:32;12.50;99.90
22623;DHT22;11478;51.094;7.030;2022-10-16T08:16:07;12.50;99.90
22623;DHT22;11478;51.094;7.030;2022-10-16T08:18:46;12.50;99.90
22623;DHT22;11478;51.094;7.030;2022-10-16T08:21:16;12.60;99.90
22623;DHT22;11478;51.094;7.030;2022-10-16T08:23:53;12.60;99.90
22623;DHT22;11478;51.094;7.030;2022-10-16T08:26:24;12.60;99.90
22623;DHT22;11478;51.094;7.030;2022-10-16T08:28:51;12.70;99.90
22623;DHT22;11478;51.094;7.030;2022-10-16T08:31:17;12.70;99.90
22623;DHT22;11478;51.094;7.030;2022-10-16T08:33:44;12.70;99.90
22623;DHT22;11478;51.094;7.030;2022-10-16T08:36:18;12.70;99.90
22623;DHT22;11478;51.094;7.030;2022-10-16T08:38:46;12.80;99.90
22623;DHT22;11478;51.094;7.030;2022-10-16T08:44:34;12.90;99.90
22623;DHT22;11478;51.094;7.030;2022-10-16T08:50:27;13.10;99.90
22623;DHT22;11478;51.094;7.030;2022-10-16T08:52:54;13.30;99.90
22623;DHT22;11478;51.094;7.030;2022-10-16T08:58:39;13.50;99.90
22623;DHT22;11478;51.094;7.030;2022-10-16T09:01:11;13.70;99.90
22623;DHT22;11478;51.094;7.030;2022-10-16T09:06:55;14.00;99.90
22623;DHT22;11478;51.094;7.030;2022-10-16T09:12:25;14.20;99.90
22623;DHT22;11478;51.094;7.030;2022-10-16T09:23:38;14.10;99.90
22623;DHT22;11478;51.094;7.030;2022-10-16T09:26:05;14.10;99.90
22623;DHT22;11478;51.094;7.030;2022-10-16T09:28:32;14.10;99.90
22623;DHT22;11478;51.094;7.030;2022-10-16T09:30:58;14.10;99.90
22623;DHT22;11478;51.094;7.030;2022-10-16T09:33:29;14.10;99.90
22623;DHT22;11478;51.094;7.030;2022-10-16T09:36:03;14.10;99.90
22623;DHT22;11478;51.094;7.030;2022-10-16T09:38:31;14.10;99.90
22623;DHT22;11478;51.094;7.030;2022-10-16T09:41:00;14.00;99.90
22623;DHT22;11478;51.094;7.030;2022-10-16T09:43:52;14.10;99.90
22623;DHT22;11478;51.094;7.030;2022-10-16T09:46:39;14.10;99.90
22623;DHT22;11478;51.094;7.030;2022-10-16T09:49:24;14.10;99.90
22623;DHT22;11478;51.094;7.030;2022-10-16T09:52:11;14.10;99.90
22623;DHT22;11478;51.094;7.030;2022-10-16T09:54:52;14.20;99.90
22623;DHT22;11478;51.094;7.030;2022-10-16T09:57:18;14.20;99.90
22623;DHT22;11478;51.094;7.030;2022-10-16T09:59:49;14.20;99.90
22623;DHT22;11478;51.094;7.030;2022-10-16T10:02:18;14.20;99.90
22623;DHT22;11478;51.094;7.030;2022-10-16T10:04:55;14.30;99.90
22623;DHT22;11478;51.094;7.030;2022-10-16T10:07:32;14.40;99.90
22623;DHT22;11478;51.094;7.030;2022-10-16T10:10:27;14.50;99.90
22623;DHT22;11478;51.094;7.030;2022-10-16T10:12:56;14.60;99.90
22623;DHT22;11478;51.094;7.030;2022-10-16T10:15:24;14.60;99.90
22623;DHT22;11478;51.094;7.030;2022-10-16T10:17:57;14.60;99.90
22623;DHT22;11478;51.094;7.030;2022-10-16T10:20:35;14.60;99.90
22623;DHT22;11478;51.094;7.030;2022-10-16T10:23:32;14.60;99.90
22623;DHT22;11478;51.094;7.030;2022-10-16T10:34:00;14.80;99.90
22623;DHT22;11478;51.094;7.030;2022-10-16T10:36:38;14.90;99.90
22623;DHT22;11478;51.094;7.030;2022-10-16T10:39:27;15.10;99.90
22623;DHT22;11478;51.094;7.030;2022-10-16T10:42:20;15.20;99.90
22623;DHT22;11478;51.094;7.030;2022-10-16T10:51:05;15.30;99.90
22623;DHT22;11478;51.094;7.030;2022-10-16T11:07:41;15.50;99.90
22623;DHT22;11478;51.094;7.030;2022-10-16T11:10:16;15.50;99.90
22623;DHT22;11478;51.094;7.030;2022-10-16T11:12:55;15.50;99.90
22623;DHT22;11478;51.094;7.030;2022-10-16T11:15:43;15.50;99.90
22623;DHT22;11478;51.094;7.030;2022-10-16T11:18:52;15.50;99.90
22623;DHT22;11478;51.094;7.030;2022-10-16T11:21:21;15.50;99.90
22623;DHT22;11478;51.094;7.030;2022-10-16T11:24:07;15.60;99.90
22623;DHT22;11478;51.094;7.030;2022-10-16T11:26:41;15.70;99.90
22623;DHT22;11478;51.094;7.030;2022-10-16T11:29:16;15.80;99.90
22623;DHT22;11478;51.094;7.030;2022-10-16T11:31:52;16.00;99.90
22623;DHT22;11478;51.094;7.030;2022-10-16T11:34:36;16.00;99.90
22623;DHT22;11478;51.094;7.030;2022-10-16T11:37:21;16.00;99.90
22623;DHT22;11478;51.094;7.030;2022-10-16T11:39:50;16.00;99.90
22623;DHT22;11478;51.094;7.030;2022-10-16T11:42:46;16.10;99.90
22623;DHT22;11478;51.094;7.030;2022-10-16T11:45:23;16.10;99.90
22623;DHT22;11478;51.094;7.030;2022-10-16T11:54:04;16.10;99.90
22623;DHT22;11478;51.094;7.030;2022-10-16T11:56:38;16.10;99.90
22623;DHT22;11478;51.094;7.030;2022-10-16T11:59:24;16.10;99.90
22623;DHT22;11478;51.094;7.030;2022-10-16T12:04:51;16.10;99.90
22623;DHT22;11478;51.094;7.030;2022-10-16T12:07:27;16.30;99.90
22623;DHT22;11478;51.094;7.030;2022-10-16T12:10:31;16.40;99.90
22623;DHT22;11478;51.094;7.030;2022-10-16T12:18:30;16.70;99.90
22623;DHT22;11478;51.094;7.030;2022-10-16T12:20:57;16.70;99.90
22623;DHT22;11478;51.094;7.030;2022-10-16T12:23:26;16.80;99.90
22623;DHT22;11478;51.094;7.030;2022-10-16T12:25:57;16.80;99.90
22623;DHT22;11478;51.094;7.030;2022-10-16T12:28:34;16.80;99.90
22623;DHT22;11478;51.094;7.030;2022-10-16T12:31:06;16.80;99.90
22623;DHT22;11478;51.094;7.030;2022-10-16T12:33:34;16.80;99.90
22623;DHT22;11478;51.094;7.030;2022-10-16T12:36:26;16.80;99.90
22623;DHT22;11478;51.094;7.030;2022-10-16T12:39:22;16.80;99.90
22623;DHT22;11478;51.094;7.030;2022-10-16T12:41:59;16.70;99.90
22623;DHT22;11478;51.094;7.030;2022-10-16T12:44:25;16.60;99.90
22623;DHT22;11478;51.094;7.030;2022-10-16T12:46:52;16.50;99.90
22623;DHT22;11478;51.094;7.030;2022-10-16T12:51:58;16.20;99.90
22623;DHT22;11478;51.094;7.030;2022-10-16T12:54:30;16.10;99.90
22623;DHT22;11478;51.094;7.030;2022-10-16T13:03:34;16.20;99.90
22623;DHT22;11478;51.094;7.030;2022-10-16T13:16:23;16.70;99.90
22623;DHT22;11478;51.094;7.030;2022-10-16T13:22:04;16.80;99.90
22623;DHT22;11478;51.094;7.030;2022-10-16T13:25:26;16.90;99.90
22623;DHT22;11478;51.094;7.030;2022-10-16T13:27:44;17.10;99.90
22623;DHT22;11478;51.094;7.030;2022-10-16T13:30:26;17.30;99.90
22623;DHT22;11478;51.094;7.030;2022-10-16T13:33:33;17.30;99.90
22623;DHT22;11478;51.094;7.030;2022-10-16T13:36:02;17.20;99.90
22623;DHT22;11478;51.094;7.030;2022-10-16T13:38:34;17.10;99.90
22623;DHT22;11478;51.094;7.030;2022-10-16T13:41:06;17.10;99.90
22623;DHT22;11478;51.094;7.030;2022-10-16T13:43:51;17.00;99.90
22623;DHT22;11478;51.094;7.030;2022-10-16T13:46:21;16.90;99.90
22623;DHT22;11478;51.094;7.030;2022-10-16T13:49:10;16.80;99.90
22623;DHT22;11478;51.094;7.030;2022-10-16T13:51:37;16.70;99.90
22623;DHT22;11478;51.094;7.030;2022-10-16T13:54:03;16.60;99.90
22623;DHT22;11478;51.094;7.030;2022-10-16T13:56:32;16.50;99.90
22623;DHT22;11478;51.094;7.030;2022-10-16T13:59:06;16.50;99.90
22623;DHT22;11478;51.094;7.030;2022-10-16T14:05:01;16.30;99.90
22623;DHT22;11478;51.094;7.030;2022-10-16T14:07:35;16.20;99.90
22623;DHT22;11478;51.094;7.030;2022-10-16T14:10:05;16.10;99.90
22623;DHT22;11478;51.094;7.030;2022-10-16T14:12:34;16.00;99.90
22623;DHT22;11478;51.094;7.030;2022-10-16T14:15:05;16.00;99.90
22623;DHT22;11478;51.094;7.030;2022-10-16T14:17:35;15.90;99.90
22623;DHT22;11478;51.094;7.030;2022-10-16T14:20:04;15.80;99.90
22623;DHT22;11478;51.094;7.030;2022-10-16T14:22:43;15.80;99.90
22623;DHT22;11478;51.094;7.030;2022-10-16T14:41:21;15.80;99.90
22623;DHT22;11478;51.094;7.030;2022-10-16T14:43:53;15.80;99.90
22623;DHT22;11478;51.094;7.030;2022-10-16T14:46:46;15.80;99.90
22623;DHT22;11478;51.094;7.030;2022-10-16T14:49:20;15.80;99.90
22623;DHT22;11478;51.094;7.030;2022-10-16T14:51:54;15.80;99.90
22623;DHT22;11478;51.094;7.030;2022-10-16T14:54:23;15.80;99.90
22623;DHT22;11478;51.094;7.030;2022-10-16T14:56:56;15.80;99.90
22623;DHT22;11478;51.094;7.030;2022-10-16T14:59:41;15.70;99.90
22623;DHT22;11478;51.094;7.030;2022-10-16T15:02:30;15.70;99.90
22623;DHT22;11478;51.094;7.030;2022-10-16T15:04:57;15.70;99.90
22623;DHT22;11478;51.094;7.030;2022-10-16T15:07:24;15.70;99.90
22623;DHT22;11478;51.094;7.030;2022-10-16T15:09:51;15.70;99.90
22623;DHT22;11478;51.094;7.030;2022-10-16T15:12:17;15.70;99.90
22623;DHT22;11478;51.094;7.030;2022-10-16T15:14:48;15.70;99.90
22623;DHT22;11478;51.094;7.030;2022-10-16T15:17:19;15.70;99.90
22623;DHT22;11478;51.094;7.030;2022-10-16T15:19:48;15.70;99.90
22623;DHT22;11478;51.094;7.030;2022-10-16T15:22:27;15.70;99.90
22623;DHT22;11478;51.094;7.030;2022-10-16T15:31:45;15.60;99.90
22623;DHT22;11478;51.094;7.030;2022-10-16T15:34:17;15.60;99.90
22623;DHT22;11478;51.094;7.030;2022-10-16T15:36:49;15.60;99.90
22623;DHT22;11478;51.094;7.030;2022-10-16T15:39:18;15.50;99.90
22623;DHT22;11478;51.094;7.030;2022-10-16T15:41:54;15.50;99.90
22623;DHT22;11478;51.094;7.030;2022-10-16T15:44:40;15.50;99.90
22623;DHT22;11478;51.094;7.030;2022-10-16T15:47:07;15.50;99.90
22623;DHT22;11478;51.094;7.030;2022-10-16T15:49:37;15.40;99.90
22623;DHT22;11478;51.094;7.030;2022-10-16T15:52:13;15.40;99.90
22623;DHT22;11478;51.094;7.030;2022-10-16T15:54:46;15.40;99.90
22623;DHT22;11478;51.094;7.030;2022-10-16T15:57:27;15.40;99.90
22623;DHT22;11478;51.094;7.030;2022-10-16T16:00:13;15.30;99.90
22623;DHT22;11478;51.094;7.030;2022-10-16T16:02:50;15.30;99.90
22623;DHT22;11478;51.094;7.030;2022-10-16T16:05:39;15.20;99.90
22623;DHT22;11478;51.094;7.030;2022-10-16T16:08:32;15.20;99.90
22623;DHT22;11478;51.094;7.030;2022-10-16T16:11:19;15.10;99.90
22623;DHT22;11478;51.094;7.030;2022-10-16T16:13:51;15.10;99.90
22623;DHT22;11478;51.094;7.030;2022-10-16T16:16:27;15.10;99.90
22623;DHT22;11478;51.094;7.030;2022-10-16T16:18:59;15.10;99.90
22623;DHT22;11478;51.094;7.030;2022-10-16T16:21:38;15.00;99.90
22623;DHT22;11478;51.094;7.030;2022-10-16T16:24:25;15.00;99.90
22623;DHT22;11478;51.094;7.030;2022-10-16T16:27:29;15.00;99.90
22623;DHT22;11478;51.094;7.030;2022-10-16T16:30:00;14.90;99.90
22623;DHT22;11478;51.094;7.030;2022-10-16T16:32:28;14.90;99.90
22623;DHT22;11478;51.094;7.030;2022-10-16T16:35:05;14.80;99.90
22623;DHT22;11478;51.094;7.030;2022-10-16T16:37:31;14.80;99.90
22623;DHT22;11478;51.094;7.030;2022-10-16T16:40:00;14.80;99.90
22623;DHT22;11478;51.094;7.030;2022-10-16T16:42:28;14.80;99.90
22623;DHT22;11478;51.094;7.030;2022-10-16T16:44:54;14.80;99.90
22623;DHT22;11478;51.094;7.030;2022-10-16T16:47:25;14.70;99.90
22623;DHT22;11478;51.094;7.030;2022-10-16T16:49:55;14.70;99.90
22623;DHT22;11478;51.094;7.030;2022-10-16T16:52:24;14.70;99.90
22623;DHT22;11478;51.094;7.030;2022-10-16T16:54:54;14.70;99.90
22623;DHT22;11478;51.094;7.030;2022-10-16T16:57:21;14.60;99.90
22623;DHT22;11478;51.094;7.030;2022-10-16T16:59:52;14.60;99.90
22623;DHT22;11478;51.094;7.030;2022-10-16T17:02:21;14.60;99.90
22623;DHT22;11478;51.094;7.030;2022-10-16T17:04:52;14.60;99.90
22623;DHT22;11478;51.094;7.030;2022-10-16T17:07:31;14.50;99.90
22623;DHT22;11478;51.094;7.030;2022-10-16T17:10:08;14.50;99.90
22623;DHT22;11478;51.094;7.030;2022-10-16T17:12:34;14.50;99.90
22623;DHT22;11478;51.094;7.030;2022-10-16T17:15:00;14.50;99.90
22623;DHT22;11478;51.094;7.030;2022-10-16T17:17:26;14.50;99.90
22623;DHT22;11478;51.094;7.030;2022-10-16T17:19:54;14.50;99.90
22623;DHT22;11478;51.094;7.030;2022-10-16T17:22:21;14.50;99.90
22623;DHT22;11478;51.094;7.030;2022-10-16T17:24:50;14.50;99.90
22623;DHT22;11478;51.094;7.030;2022-10-16T17:27:20;14.50;99.90
22623;DHT22;11478;51.094;7.030;2022-10-16T17:29:50;14.50;99.90
22623;DHT22;11478;51.094;7.030;2022-10-16T17:32:16;14.50;99.90
22623;DHT22;11478;51.094;7.030;2022-10-16T17:34:50;14.50;99.90
22623;DHT22;11478;51.094;7.030;2022-10-16T17:37:21;14.50;99.90
22623;DHT22;11478;51.094;7.030;2022-10-16T17:39:52;14.50;99.90
22623;DHT22;11478;51.094;7.030;2022-10-16T17:42:18;14.50;99.90
22623;DHT22;11478;51.094;7.030;2022-10-16T17:44:44;14.40;99.90
22623;DHT22;11478;51.094;7.030;2022-10-16T17:47:13;14.40;99.90
22623;DHT22;11478;51.094;7.030;2022-10-16T17:49:43;14.40;99.90
22623;DHT22;11478;51.094;7.030;2022-10-16T17:52:14;14.40;99.90
22623;DHT22;11478;51.094;7.030;2022-10-16T17:54:42;14.40;99.90
22623;DHT22;11478;51.094;7.030;2022-10-16T17:57:11;14.40;99.90
22623;DHT22;11478;51.094;7.030;2022-10-16T17:59:50;14.40;99.90
22623;DHT22;11478;51.094;7.030;2022-10-16T18:02:20;14.40;99.90
22623;DHT22;11478;51.094;7.030;2022-10-16T18:04:46;14.40;99.90
22623;DHT22;11478;51.094;7.030;2022-10-16T18:07:15;14.40;99.90
22623;DHT22;11478;51.094;7.030;2022-10-16T18:09:41;14.40;99.90
22623;DHT22;11478;51.094;7.030;2022-10-16T18:12:10;14.40;99.90
22623;DHT22;11478;51.094;7.030;2022-10-16T18:14:39;14.40;99.90
22623;DHT22;11478;51.094;7.030;2022-10-16T18:17:09;14.40;99.90
22623;DHT22;11478;51.094;7.030;2022-10-16T18:19:38;14.40;99.90
22623;DHT22;11478;51.094;7.030;2022-10-16T18:22:06;14.40;99.90
22623;DHT22;11478;51.094;7.030;2022-10-16T18:24:32;14.40;99.90
22623;DHT22;11478;51.094;7.030;2022-10-16T18:27:05;14.30;99.90
22623;DHT22;11478;51.094;7.030;2022-10-16T18:29:35;14.30;99.90
22623;DHT22;11478;51.094;7.030;2022-10-16T18:32:04;14.30;99.90
22623;DHT22;11478;51.094;7.030;2022-10-16T18:34:47;14.30;99.90
22623;DHT22;11478;51.094;7.030;2022-10-16T18:37:25;14.30;99.90
22623;DHT22;11478;51.094;7.030;2022-10-16T18:40:03;14.30;99.90
22623;DHT22;11478;51.094;7.030;2022-10-16T18:42:30;14.30;99.90
22623;DHT22;11478;51.094;7.030;2022-10-16T18:45:03;14.30;99.90
22623;DHT22;11478;51.094;7.030;2022-10-16T18:47:29;14.30;99.90
22623;DHT22;11478;51.094;7.030;2022-10-16T18:49:59;14.30;99.90
22623;DHT22;11478;51.094;7.030;2022-10-16T18:52:25;14.20;99.90